Time;durP1;ratioP1;P1;durP2;ratioP2;P2;SDS_P1;SDS_P2;PMS_P1;PMS_P2;Temp;Humidity;BMP_temperature;BMP_pressure;BME280_temperature;BME280_humidity;BME280_pressure;Samples;Min_cycle;Max_cycle;Signal;HPM_P1;HPM_P2
2023/10/22 00:00:08;;;;;;;2.78;0.60;;;;;;;;;;4968168;28;93033;-85
2023/10/22 00:02:38;;;;;;;1.20;0.43;;;;;;;;;;4970190;28;93491;-85
2023/10/22 00:05:05;;;;;;;1.23;0.50;;;;;;;;;;4967143;28;92792;-85
2023/10/22 00:07:32;;;;;;;2.33;0.60;;;;;;;;;;4971880;28;92813;-84
2023/10/22 00:09:59;;;;;;;2.30;0.70;;;;;;;;;;4973036;28;95681;-85
2023/10/22 00:12:26;;;;;;;2.53;0.82;;;;;;;;;;4978328;28;92488;-84
2023/10/22 00:14:52;;;;;;;1.52;0.50;;;;;;;;;;4977622;28;94260;-85
2023/10/22 00:17:19;;;;;;;1.45;0.63;;;;;;;;;;4977061;28;93382;-84
2023/10/22 00:19:46;;;;;;;2.28;0.60;;;;;;;;;;4970119;28;92574;-85
2023/10/22 00:22:14;;;;;;;1.25;0.45;;;;;;;;;;4971442;28;93623;-85
2023/10/22 00:24:41;;;;;;;1.95;0.60;;;;;;;;;;4974604;28;93211;-85
2023/10/22 00:27:08;;;;;;;2.20;0.60;;;;;;;;;;4972469;28;92747;-84
2023/10/22 00:29:34;;;;;;;1.90;0.60;;;;;;;;;;4963361;28;93233;-84
2023/10/22 00:32:01;;;;;;;1.52;0.68;;;;;;;;;;4971491;28;92492;-84
2023/10/22 00:34:28;;;;;;;1.55;0.50;;;;;;;;;;4969441;28;99006;-85
2023/10/22 00:36:55;;;;;;;3.25;0.80;;;;;;;;;;4971036;28;93062;-85
2023/10/22 00:39:22;;;;;;;2.10;0.70;;;;;;;;;;4969394;28;100846;-85
2023/10/22 00:41:48;;;;;;;0.70;0.50;;;;;;;;;;4971967;28;93349;-87
2023/10/22 00:44:15;;;;;;;2.08;0.88;;;;;;;;;;4968853;28;95792;-84
2023/10/22 00:46:44;;;;;;;1.58;0.68;;;;;;;;;;4973546;28;92742;-84
2023/10/22 00:49:12;;;;;;;2.45;0.65;;;;;;;;;;4971355;28;93166;-85
2023/10/22 00:51:39;;;;;;;2.88;0.77;;;;;;;;;;4971537;28;92544;-86
2023/10/22 00:54:06;;;;;;;1.75;0.70;;;;;;;;;;4968842;28;93424;-86
2023/10/22 00:56:32;;;;;;;2.17;0.70;;;;;;;;;;4971314;28;93681;-85
2023/10/22 00:58:59;;;;;;;1.48;0.57;;;;;;;;;;4966626;28;95625;-85
2023/10/22 01:01:26;;;;;;;2.13;0.70;;;;;;;;;;4961867;28;95722;-85
2023/10/22 01:03:53;;;;;;;3.30;0.90;;;;;;;;;;4971280;28;93091;-85
2023/10/22 01:06:20;;;;;;;1.08;0.60;;;;;;;;;;4970622;28;92476;-85
2023/10/22 01:08:47;;;;;;;1.85;0.50;;;;;;;;;;4975655;28;92944;-85
2023/10/22 01:11:15;;;;;;;5.75;0.80;;;;;;;;;;4971116;28;92519;-82
2023/10/22 01:13:41;;;;;;;5.60;0.98;;;;;;;;;;4973565;28;93119;-84
2023/10/22 01:16:08;;;;;;;2.88;0.75;;;;;;;;;;4971090;28;92109;-84
2023/10/22 01:18:35;;;;;;;5.55;0.80;;;;;;;;;;4969227;28;92425;-85
2023/10/22 01:21:03;;;;;;;2.28;0.80;;;;;;;;;;4955790;28;95907;-85
2023/10/22 01:23:33;;;;;;;1.70;0.80;;;;;;;;;;4969055;28;95986;-84
2023/10/22 01:26:00;;;;;;;2.58;0.80;;;;;;;;;;4951784;28;93019;-85
2023/10/22 01:28:27;;;;;;;3.90;0.82;;;;;;;;;;4986375;28;98697;-83
2023/10/22 01:30:55;;;;;;;5.68;0.88;;;;;;;;;;4962564;28;92573;-85
2023/10/22 01:33:22;;;;;;;2.97;0.70;;;;;;;;;;4970335;28;95363;-83
2023/10/22 01:35:49;;;;;;;2.97;0.90;;;;;;;;;;4970548;28;93980;-85
2023/10/22 01:38:16;;;;;;;2.33;0.82;;;;;;;;;;4970096;28;92438;-85
2023/10/22 01:40:42;;;;;;;2.55;0.88;;;;;;;;;;4969992;28;92685;-85
2023/10/22 01:43:09;;;;;;;1.63;0.73;;;;;;;;;;4970489;28;93175;-85
2023/10/22 01:45:35;;;;;;;1.27;0.68;;;;;;;;;;4968204;28;92534;-85
2023/10/22 01:48:02;;;;;;;1.42;0.63;;;;;;;;;;4967256;28;94956;-83
2023/10/22 01:50:29;;;;;;;1.58;0.50;;;;;;;;;;4963315;28;93657;-85
2023/10/22 01:52:55;;;;;;;2.88;0.80;;;;;;;;;;4976104;28;93057;-86
2023/10/22 01:55:22;;;;;;;1.73;0.70;;;;;;;;;;4963717;28;95444;-85
2023/10/22 01:57:48;;;;;;;3.55;0.90;;;;;;;;;;4964565;28;92476;-85
2023/10/22 02:00:17;;;;;;;1.20;0.55;;;;;;;;;;4967419;28;95642;-85
2023/10/22 02:02:43;;;;;;;1.45;0.65;;;;;;;;;;4968092;28;95595;-85
2023/10/22 02:05:10;;;;;;;1.95;0.60;;;;;;;;;;4969798;28;92195;-85
2023/10/22 02:07:38;;;;;;;3.15;0.80;;;;;;;;;;4969404;28;92548;-84
2023/10/22 02:10:06;;;;;;;1.75;0.60;;;;;;;;;;4967247;28;94188;-85
2023/10/22 02:12:32;;;;;;;2.90;0.80;;;;;;;;;;4970132;28;95066;-86
2023/10/22 02:14:59;;;;;;;0.75;0.50;;;;;;;;;;4969164;28;92978;-85
2023/10/22 02:17:26;;;;;;;1.95;0.70;;;;;;;;;;4969741;28;93006;-85
2023/10/22 02:19:52;;;;;;;2.35;0.70;;;;;;;;;;4969993;28;92720;-85
2023/10/22 02:22:19;;;;;;;2.10;0.75;;;;;;;;;;4966963;28;95943;-86
2023/10/22 02:24:45;;;;;;;1.58;0.70;;;;;;;;;;4984466;28;92600;-84
2023/10/22 02:27:12;;;;;;;2.33;0.68;;;;;;;;;;4969693;28;94998;-86
2023/10/22 02:29:38;;;;;;;1.42;0.47;;;;;;;;;;4950645;28;93099;-85
2023/10/22 02:32:05;;;;;;;1.05;0.70;;;;;;;;;;4963855;28;92449;-84
2023/10/22 02:34:32;;;;;;;1.50;0.63;;;;;;;;;;4970607;28;95889;-85
2023/10/22 02:36:58;;;;;;;3.17;0.80;;;;;;;;;;4965128;28;94866;-86
2023/10/22 02:39:25;;;;;;;1.33;0.70;;;;;;;;;;4976186;28;95142;-86
2023/10/22 02:41:52;;;;;;;2.65;0.75;;;;;;;;;;4967164;28;95700;-86
2023/10/22 02:44:19;;;;;;;1.58;0.73;;;;;;;;;;4966949;28;93081;-86
2023/10/22 02:46:45;;;;;;;1.45;0.63;;;;;;;;;;4966716;28;93916;-85
2023/10/22 02:49:12;;;;;;;0.50;0.50;;;;;;;;;;4967082;28;94157;-86
2023/10/22 02:51:39;;;;;;;0.80;0.60;;;;;;;;;;4978902;28;92587;-85
2023/10/22 02:54:05;;;;;;;1.92;0.60;;;;;;;;;;4977880;28;95462;-86
2023/10/22 02:56:32;;;;;;;2.30;0.60;;;;;;;;;;4951052;28;93274;-86
2023/10/22 02:58:59;;;;;;;0.88;0.52;;;;;;;;;;4961523;28;92540;-87
2023/10/22 03:01:26;;;;;;;0.70;0.52;;;;;;;;;;4965358;28;98189;-85
2023/10/22 03:03:53;;;;;;;1.80;0.70;;;;;;;;;;4968973;28;92430;-84
2023/10/22 03:06:20;;;;;;;1.65;0.50;;;;;;;;;;4967859;28;93361;-85
2023/10/22 03:08:47;;;;;;;1.80;0.52;;;;;;;;;;4967826;28;93011;-85
2023/10/22 03:11:16;;;;;;;1.05;0.50;;;;;;;;;;4968711;28;92471;-85
2023/10/22 03:13:43;;;;;;;1.17;0.45;;;;;;;;;;4968968;28;92353;-84
2023/10/22 03:16:15;;;;;;;;;;;;;;;;;;4983156;28;92427;-85
2023/10/22 03:18:44;;;;;;;1.52;0.60;;;;;;;;;;4973507;28;91663;-83
2023/10/22 03:21:19;;;;;;;0.88;0.43;;;;;;;;;;4966854;28;96023;-83
2023/10/22 03:23:46;;;;;;;1.65;0.45;;;;;;;;;;4961501;28;92560;-84
2023/10/22 03:26:16;;;;;;;;;;;;;;;;;;4972849;28;94926;-84
2023/10/22 03:28:43;;;;;;;0.85;0.40;;;;;;;;;;4968827;28;96630;-83
2023/10/22 03:31:11;;;;;;;0.40;0.32;;;;;;;;;;4963523;28;92927;-84
2023/10/22 03:33:37;;;;;;;0.80;0.47;;;;;;;;;;4971981;28;93255;-83
2023/10/22 03:36:04;;;;;;;0.73;0.40;;;;;;;;;;4971112;28;92461;-82
2023/10/22 03:38:31;;;;;;;4.82;0.57;;;;;;;;;;4976690;28;93225;-84
2023/10/22 03:41:04;;;;;;;0.65;0.40;;;;;;;;;;4968021;28;93103;-85
2023/10/22 03:43:31;;;;;;;0.95;0.55;;;;;;;;;;4969181;28;92280;-85
2023/10/22 03:45:58;;;;;;;2.58;0.50;;;;;;;;;;4968204;28;92797;-84
2023/10/22 03:48:25;;;;;;;0.80;0.50;;;;;;;;;;4965887;28;93634;-83
2023/10/22 03:50:52;;;;;;;1.58;0.70;;;;;;;;;;4966280;28;95162;-84
2023/10/22 03:53:19;;;;;;;1.00;0.60;;;;;;;;;;4968136;28;95162;-84
2023/10/22 03:55:46;;;;;;;2.58;0.60;;;;;;;;;;4968404;28;94299;-84
2023/10/22 03:58:12;;;;;;;2.35;0.70;;;;;;;;;;4967959;28;92739;-84
2023/10/22 04:00:39;;;;;;;2.72;0.88;;;;;;;;;;4985755;28;93009;-85
2023/10/22 04:03:05;;;;;;;2.17;0.65;;;;;;;;;;4967693;28;92356;-84
2023/10/22 04:05:32;;;;;;;2.20;0.70;;;;;;;;;;4968438;28;92746;-85
2023/10/22 04:07:59;;;;;;;1.33;0.60;;;;;;;;;;4968127;28;92581;-85
2023/10/22 04:10:25;;;;;;;1.13;0.73;;;;;;;;;;4967025;28;92801;-85
2023/10/22 04:12:52;;;;;;;2.65;0.70;;;;;;;;;;4967714;28;93318;-85
2023/10/22 04:15:18;;;;;;;1.75;0.82;;;;;;;;;;4959314;28;95413;-85
2023/10/22 04:17:49;;;;;;;2.72;0.93;;;;;;;;;;4958340;28;92883;-86
2023/10/22 04:20:16;;;;;;;3.13;0.88;;;;;;;;;;4966668;28;93957;-84
2023/10/22 04:22:43;;;;;;;3.03;0.93;;;;;;;;;;4969377;28;96239;-85
2023/10/22 04:25:10;;;;;;;6.57;0.95;;;;;;;;;;4967565;28;92931;-85
2023/10/22 04:27:36;;;;;;;2.90;0.80;;;;;;;;;;4967519;28;93375;-84
2023/10/22 04:30:04;;;;;;;5.78;1.17;;;;;;;;;;4957323;28;92521;-84
2023/10/22 04:32:32;;;;;;;1.05;0.82;;;;;;;;;;4968609;28;93115;-84
2023/10/22 04:34:58;;;;;;;2.63;0.98;;;;;;;;;;4967319;28;93245;-84
2023/10/22 04:37:27;;;;;;;3.28;0.85;;;;;;;;;;4967588;28;92403;-84
2023/10/22 04:39:56;;;;;;;2.65;0.80;;;;;;;;;;4966592;28;95210;-84
2023/10/22 04:42:26;;;;;;;2.97;0.93;;;;;;;;;;4967172;28;93680;-84
2023/10/22 04:44:52;;;;;;;2.25;0.80;;;;;;;;;;4971416;28;93107;-84
2023/10/22 04:47:19;;;;;;;1.55;0.80;;;;;;;;;;4967772;28;93156;-83
2023/10/22 04:49:47;;;;;;;4.32;0.88;;;;;;;;;;4966128;28;92565;-84
2023/10/22 04:52:31;;;;;;;1.80;0.90;;;;;;;;;;4965691;28;93101;-83
2023/10/22 04:54:59;;;;;;;3.15;0.95;;;;;;;;;;4966738;28;93114;-83
2023/10/22 04:57:26;;;;;;;1.83;1.02;;;;;;;;;;4968232;28;91893;-84
2023/10/22 04:59:53;;;;;;;1.58;0.80;;;;;;;;;;4968165;28;92961;-83
2023/10/22 05:02:20;;;;;;;2.45;0.90;;;;;;;;;;4968095;28;95448;-83
2023/10/22 05:04:47;;;;;;;3.00;1.00;;;;;;;;;;4967477;28;94899;-84
2023/10/22 05:07:14;;;;;;;2.67;0.90;;;;;;;;;;4972765;28;95215;-84
2023/10/22 05:09:40;;;;;;;2.10;0.80;;;;;;;;;;4970221;28;92727;-84
2023/10/22 05:12:07;;;;;;;2.58;0.70;;;;;;;;;;4970233;28;93368;-83
2023/10/22 05:14:34;;;;;;;5.13;1.02;;;;;;;;;;4969083;28;96039;-84
2023/10/22 05:17:00;;;;;;;2.92;1.05;;;;;;;;;;4970066;28;93109;-83
2023/10/22 05:19:27;;;;;;;3.20;0.95;;;;;;;;;;4971241;28;92879;-85
2023/10/22 05:21:54;;;;;;;4.20;1.10;;;;;;;;;;4969762;28;92436;-85
2023/10/22 05:24:20;;;;;;;2.60;0.95;;;;;;;;;;4972257;28;92444;-85
2023/10/22 05:26:47;;;;;;;3.95;1.00;;;;;;;;;;4976357;28;92642;-85
2023/10/22 05:29:13;;;;;;;3.08;0.88;;;;;;;;;;4963224;28;95430;-85
2023/10/22 05:31:40;;;;;;;5.45;1.00;;;;;;;;;;4965539;28;94970;-84
2023/10/22 05:34:07;;;;;;;3.83;0.90;;;;;;;;;;4968718;28;93143;-85
2023/10/22 05:36:33;;;;;;;2.78;0.90;;;;;;;;;;4968691;28;92452;-84
2023/10/22 05:39:00;;;;;;;2.38;0.85;;;;;;;;;;4968702;28;93217;-85
2023/10/22 05:41:27;;;;;;;1.98;0.98;;;;;;;;;;4969828;28;93363;-85
2023/10/22 05:44:01;;;;;;;3.65;1.02;;;;;;;;;;4970584;28;92625;-86
2023/10/22 05:46:28;;;;;;;3.45;1.00;;;;;;;;;;4970093;28;92735;-86
2023/10/22 05:48:55;;;;;;;2.17;1.00;;;;;;;;;;4973168;28;93494;-86
2023/10/22 05:51:21;;;;;;;3.05;1.10;;;;;;;;;;4969968;28;93212;-86
2023/10/22 05:53:48;;;;;;;3.22;1.00;;;;;;;;;;4968472;28;95566;-85
2023/10/22 05:56:15;;;;;;;2.70;1.05;;;;;;;;;;4969365;28;93664;-85
2023/10/22 05:58:41;;;;;;;2.22;1.10;;;;;;;;;;4970032;28;92727;-85
2023/10/22 06:01:09;;;;;;;4.35;0.95;;;;;;;;;;4969591;28;93665;-85
2023/10/22 06:03:35;;;;;;;2.20;0.93;;;;;;;;;;4969934;28;92447;-86
2023/10/22 06:06:03;;;;;;;1.83;1.00;;;;;;;;;;4969270;28;92533;-82
2023/10/22 06:08:29;;;;;;;2.13;1.02;;;;;;;;;;4968677;28;93068;-82
2023/10/22 06:10:56;;;;;;;3.88;1.02;;;;;;;;;;4973078;28;91975;-83
2023/10/22 06:13:22;;;;;;;3.90;1.20;;;;;;;;;;4967808;28;94287;-83
2023/10/22 06:15:55;;;;;;;2.95;0.98;;;;;;;;;;4967715;28;92923;-83
2023/10/22 06:18:21;;;;;;;3.60;0.90;;;;;;;;;;4966903;28;94957;-83
2023/10/22 06:20:48;;;;;;;3.60;1.00;;;;;;;;;;4969538;28;93046;-83
2023/10/22 06:23:15;;;;;;;3.22;1.00;;;;;;;;;;4968423;28;93150;-83
2023/10/22 06:25:43;;;;;;;2.28;1.00;;;;;;;;;;4974977;28;92965;-84
2023/10/22 06:28:09;;;;;;;2.20;0.90;;;;;;;;;;4968698;28;93044;-83
2023/10/22 06:30:36;;;;;;;3.45;1.00;;;;;;;;;;4964280;28;92503;-84
2023/10/22 06:33:03;;;;;;;2.00;1.05;;;;;;;;;;4973437;28;92594;-84
2023/10/22 06:35:30;;;;;;;2.55;1.00;;;;;;;;;;4968580;28;91778;-84
2023/10/22 06:37:57;;;;;;;2.65;1.15;;;;;;;;;;4970531;28;92437;-85
2023/10/22 06:40:24;;;;;;;3.17;1.00;;;;;;;;;;4971006;28;93131;-84
2023/10/22 06:42:50;;;;;;;4.53;1.02;;;;;;;;;;4965118;28;95013;-84
2023/10/22 06:45:19;;;;;;;3.70;1.10;;;;;;;;;;4966733;28;97880;-84
2023/10/22 06:47:48;;;;;;;2.67;1.00;;;;;;;;;;4968598;28;92793;-85
2023/10/22 06:50:15;;;;;;;4.55;1.20;;;;;;;;;;4967878;28;92497;-85
2023/10/22 06:52:45;;;;;;;2.42;1.00;;;;;;;;;;4970971;28;92901;-85
2023/10/22 06:55:11;;;;;;;3.20;1.05;;;;;;;;;;4976663;28;92522;-85
2023/10/22 06:57:43;;;;;;;2.95;1.08;;;;;;;;;;4974199;28;92739;-84
2023/10/22 07:00:12;;;;;;;;;;;;;;;;;;4974548;28;91652;-86
2023/10/22 07:02:39;;;;;;;3.38;1.10;;;;;;;;;;4979833;28;99832;-86
2023/10/22 07:05:10;;;;;;;3.97;1.20;;;;;;;;;;4975700;28;94312;-84
2023/10/22 07:07:41;;;;;;;2.78;1.15;;;;;;;;;;4972570;28;95988;-85
2023/10/22 07:10:09;;;;;;;5.10;1.10;;;;;;;;;;4968838;28;92452;-84
2023/10/22 07:12:36;;;;;;;3.78;1.20;;;;;;;;;;4968820;28;93079;-83
2023/10/22 07:15:03;;;;;;;4.47;1.25;;;;;;;;;;4968596;28;94327;-83
2023/10/22 07:17:29;;;;;;;3.92;1.40;;;;;;;;;;4971345;28;92511;-82
2023/10/22 07:19:56;;;;;;;4.15;1.40;;;;;;;;;;4968160;28;93077;-83
2023/10/22 07:22:22;;;;;;;15.52;1.80;;;;;;;;;;4968311;28;92410;-84
2023/10/22 07:24:49;;;;;;;6.97;1.45;;;;;;;;;;4965782;28;94062;-84
2023/10/22 07:27:16;;;;;;;8.60;1.40;;;;;;;;;;4967684;28;93384;-83
2023/10/22 07:29:42;;;;;;;4.40;1.35;;;;;;;;;;4968015;28;92824;-82
2023/10/22 07:32:10;;;;;;;4.72;1.48;;;;;;;;;;4965712;28;94840;-83
2023/10/22 07:34:37;;;;;;;3.50;1.33;;;;;;;;;;4966735;28;93268;-83
2023/10/22 07:37:04;;;;;;;5.68;1.30;;;;;;;;;;4970267;28;92818;-83
2023/10/22 07:39:30;;;;;;;5.28;1.48;;;;;;;;;;4971635;28;92967;-84
2023/10/22 07:41:57;;;;;;;2.97;1.20;;;;;;;;;;4967517;28;92972;-84
2023/10/22 07:44:23;;;;;;;4.75;1.05;;;;;;;;;;4967379;28;92829;-84
2023/10/22 07:46:49;;;;;;;3.75;1.27;;;;;;;;;;4966049;28;92880;-84
2023/10/22 07:49:16;;;;;;;4.68;1.17;;;;;;;;;;4967657;28;91907;-83
2023/10/22 07:51:43;;;;;;;3.10;1.20;;;;;;;;;;4967247;28;92843;-83
2023/10/22 07:54:09;;;;;;;3.00;1.20;;;;;;;;;;4960855;28;93206;-83
2023/10/22 07:56:38;;;;;;;3.67;1.23;;;;;;;;;;4946271;28;94991;-84
2023/10/22 07:59:05;;;;;;;4.18;1.27;;;;;;;;;;4971039;28;94994;-83
2023/10/22 08:01:31;;;;;;;3.03;1.20;;;;;;;;;;4963141;28;92749;-84
2023/10/22 08:03:58;;;;;;;4.00;1.10;;;;;;;;;;4960390;28;92982;-83
2023/10/22 08:06:25;;;;;;;3.40;1.15;;;;;;;;;;4946020;28;92690;-83
2023/10/22 08:08:54;;;;;;;3.08;1.20;;;;;;;;;;4953943;28;92553;-83
2023/10/22 08:11:21;;;;;;;5.50;1.30;;;;;;;;;;4966479;28;93617;-83
2023/10/22 08:13:48;;;;;;;;;;;;;;;;;;4968108;28;92585;-83
2023/10/22 08:16:15;;;;;;;3.78;1.08;;;;;;;;;;4974784;28;92562;-83
2023/10/22 08:18:44;;;;;;;5.03;1.20;;;;;;;;;;4967834;28;93128;-81
2023/10/22 08:21:11;;;;;;;4.25;1.20;;;;;;;;;;4968575;28;95428;-81
2023/10/22 08:23:38;;;;;;;5.20;1.20;;;;;;;;;;4967426;28;95023;-82
2023/10/22 08:26:06;;;;;;;4.82;1.30;;;;;;;;;;4965813;28;93569;-81
2023/10/22 08:28:34;;;;;;;4.28;1.20;;;;;;;;;;4965988;28;93679;-81
2023/10/22 08:31:00;;;;;;;3.85;1.13;;;;;;;;;;4965953;28;93202;-82
2023/10/22 08:33:27;;;;;;;3.50;1.38;;;;;;;;;;4967479;28;92852;-82
2023/10/22 08:35:54;;;;;;;3.78;1.15;;;;;;;;;;4966816;28;93159;-81
2023/10/22 08:38:20;;;;;;;3.05;1.10;;;;;;;;;;4970104;28;93254;-82
2023/10/22 08:40:50;;;;;;;4.70;1.20;;;;;;;;;;4970327;28;93338;-81
2023/10/22 08:43:17;;;;;;;4.32;1.40;;;;;;;;;;4973435;28;93007;-82
2023/10/22 08:45:48;;;;;;;;;;;;;;;;;;4968710;28;96422;-82
2023/10/22 08:48:15;;;;;;;5.22;1.60;;;;;;;;;;4970741;28;92431;-82
2023/10/22 08:50:43;;;;;;;;;;;;;;;;;;4969435;28;95835;-81
2023/10/22 08:53:11;;;;;;;3.63;1.52;;;;;;;;;;4974675;28;101867;-82
2023/10/22 08:55:39;;;;;;;4.85;1.30;;;;;;;;;;4968339;28;92878;-82
2023/10/22 08:58:05;;;;;;;3.85;1.40;;;;;;;;;;4975568;28;92944;-82
2023/10/22 09:00:32;;;;;;;4.45;1.42;;;;;;;;;;4969485;28;92527;-82
2023/10/22 09:02:59;;;;;;;5.75;1.40;;;;;;;;;;4970738;28;91843;-82
2023/10/22 09:05:25;;;;;;;5.13;1.50;;;;;;;;;;4963685;28;92442;-82
2023/10/22 09:07:53;;;;;;;4.45;1.30;;;;;;;;;;4963719;28;92616;-82
2023/10/22 09:10:30;;;;;;;6.30;1.33;;;;;;;;;;4965454;28;95523;-81
2023/10/22 09:13:12;;;;;;;6.20;1.40;;;;;;;;;;4968555;28;92880;-82
2023/10/22 09:15:42;;;;;;;5.25;1.42;;;;;;;;;;4969717;28;92537;-83
2023/10/22 09:18:09;;;;;;;6.22;1.40;;;;;;;;;;4969222;28;93160;-82
2023/10/22 09:20:37;;;;;;;4.38;1.10;;;;;;;;;;4967477;28;96634;-82
2023/10/22 09:23:29;;;;;;;4.03;1.40;;;;;;;;;;4970862;28;92502;-82
2023/10/22 09:25:56;;;;;;;3.80;1.40;;;;;;;;;;4964801;28;92981;-82
2023/10/22 09:28:25;;;;;;;2.78;1.13;;;;;;;;;;4971960;28;92336;-81
2023/10/22 09:30:55;;;;;;;4.70;1.23;;;;;;;;;;4968359;28;92756;-82
2023/10/22 09:33:32;;;;;;;4.63;1.20;;;;;;;;;;4965997;28;94882;-82
2023/10/22 09:36:02;;;;;;;4.13;1.40;;;;;;;;;;4964704;28;94973;-81
2023/10/22 09:38:39;;;;;;;5.60;1.30;;;;;;;;;;4966659;28;98699;-82
2023/10/22 09:41:06;;;;;;;4.85;1.48;;;;;;;;;;4969088;28;93450;-86
2023/10/22 09:43:32;;;;;;;7.50;1.50;;;;;;;;;;4978101;28;92411;-85
2023/10/22 09:45:59;;;;;;;5.40;1.35;;;;;;;;;;4968784;28;93664;-85
2023/10/22 09:48:28;;;;;;;7.35;1.60;;;;;;;;;;4971401;28;93327;-83
2023/10/22 09:50:55;;;;;;;6.38;1.40;;;;;;;;;;4968732;28;92780;-84
2023/10/22 09:53:23;;;;;;;6.55;1.30;;;;;;;;;;4967384;28;92396;-83
2023/10/22 09:55:51;;;;;;;6.38;1.42;;;;;;;;;;4968187;28;92966;-82
2023/10/22 09:58:20;;;;;;;6.60;1.30;;;;;;;;;;4969167;28;93651;-82
2023/10/22 10:00:46;;;;;;;6.72;1.30;;;;;;;;;;4967167;28;95527;-83
2023/10/22 10:03:19;;;;;;;6.97;1.48;;;;;;;;;;4969561;28;92861;-83
2023/10/22 10:05:47;;;;;;;4.97;1.38;;;;;;;;;;4969347;28;92853;-82
2023/10/22 10:08:14;;;;;;;5.93;1.30;;;;;;;;;;4963267;28;93108;-82
2023/10/22 10:10:41;;;;;;;5.25;1.30;;;;;;;;;;4964039;28;92844;-82
2023/10/22 10:13:11;;;;;;;4.60;1.35;;;;;;;;;;4969204;28;95073;-83
2023/10/22 10:15:38;;;;;;;4.15;1.30;;;;;;;;;;4969461;28;92505;-83
2023/10/22 10:18:08;;;;;;;6.15;1.40;;;;;;;;;;4968451;28;93373;-82
2023/10/22 10:20:38;;;;;;;3.38;1.20;;;;;;;;;;4967541;28;92993;-82
2023/10/22 10:23:09;;;;;;;3.92;1.20;;;;;;;;;;4970203;28;93173;-82
2023/10/22 10:25:38;;;;;;;5.20;1.20;;;;;;;;;;4967803;28;95135;-82
2023/10/22 10:28:08;;;;;;;2.90;1.10;;;;;;;;;;4969075;28;93064;-82
2023/10/22 10:30:36;;;;;;;3.67;1.20;;;;;;;;;;4969144;28;92572;-82
2023/10/22 10:33:03;;;;;;;;;;;;;;;;;;4974191;28;93687;-86
2023/10/22 10:35:43;;;;;;;3.03;1.20;;;;;;;;;;4969989;28;107855;-86
2023/10/22 10:38:13;;;;;;;4.97;1.30;;;;;;;;;;4968838;28;92802;-85
2023/10/22 10:40:50;;;;;;;3.88;1.25;;;;;;;;;;4967337;28;93900;-83
2023/10/22 10:43:18;;;;;;;5.32;1.20;;;;;;;;;;4969413;28;91632;-83
2023/10/22 10:46:03;;;;;;;2.80;1.08;;;;;;;;;;4969125;28;93946;-83
2023/10/22 10:48:30;;;;;;;;;;;;;;;;;;4969134;28;98175;-83
2023/10/22 10:51:25;;;;;;;3.00;1.10;;;;;;;;;;4967478;28;105509;-83
2023/10/22 10:54:00;;;;;;;3.30;1.10;;;;;;;;;;4963959;28;94970;-83
2023/10/22 10:56:49;;;;;;;5.13;1.20;;;;;;;;;;4971134;28;97990;-82
2023/10/22 10:59:25;;;;;;;3.38;1.27;;;;;;;;;;4967424;28;92938;-83
2023/10/22 11:02:01;;;;;;;3.85;1.10;;;;;;;;;;4968037;28;93057;-83
2023/10/22 11:04:29;;;;;;;2.40;0.90;;;;;;;;;;4968162;28;93032;-82
2023/10/22 11:06:56;;;;;;;3.65;1.17;;;;;;;;;;4968211;28;93657;-85
2023/10/22 11:09:35;;;;;;;3.50;1.15;;;;;;;;;;4968743;28;92369;-84
2023/10/22 11:12:06;;;;;;;4.15;1.00;;;;;;;;;;4968308;28;92897;-82
2023/10/22 11:14:34;;;;;;;9.20;1.20;;;;;;;;;;4968305;28;97385;-84
2023/10/22 11:17:01;;;;;;;4.75;1.17;;;;;;;;;;4966367;28;96462;-82
2023/10/22 11:19:31;;;;;;;5.53;1.20;;;;;;;;;;4972554;28;93796;-81
2023/10/22 11:21:58;;;;;;;4.68;1.13;;;;;;;;;;4967737;28;93141;-81
2023/10/22 11:24:27;;;;;;;4.47;1.13;;;;;;;;;;4967516;28;94493;-80
2023/10/22 11:26:54;;;;;;;6.15;1.55;;;;;;;;;;4968895;28;92663;-80
2023/10/22 11:29:21;;;;;;;8.95;1.83;;;;;;;;;;4968157;28;92401;-80
2023/10/22 11:31:57;;;;;;;7.10;1.80;;;;;;;;;;4968562;28;93016;-80
2023/10/22 11:34:24;;;;;;;6.90;1.58;;;;;;;;;;4960945;28;92900;-81
2023/10/22 11:36:57;;;;;;;8.10;1.73;;;;;;;;;;4967389;28;93374;-82
2023/10/22 11:39:24;;;;;;;;;;;;;;;;;;4967794;28;93355;-81
2023/10/22 11:42:07;;;;;;;8.35;1.42;;;;;;;;;;4967738;28;95123;-81
2023/10/22 11:44:34;;;;;;;7.10;1.40;;;;;;;;;;4968871;28;92459;-82
2023/10/22 11:47:02;;;;;;;5.70;1.60;;;;;;;;;;4967380;28;93084;-81
2023/10/22 11:49:29;;;;;;;8.48;1.63;;;;;;;;;;4967643;28;92913;-82
2023/10/22 11:51:55;;;;;;;8.10;1.70;;;;;;;;;;4967835;28;92407;-82
2023/10/22 11:54:37;;;;;;;8.30;1.80;;;;;;;;;;4966988;28;92787;-82
2023/10/22 11:57:04;;;;;;;8.55;1.75;;;;;;;;;;4967136;28;93604;-82
2023/10/22 11:59:31;;;;;;;7.50;1.67;;;;;;;;;;4966499;28;92182;-82
2023/10/22 12:01:57;;;;;;;6.28;1.40;;;;;;;;;;4970545;28;92437;-82
2023/10/22 12:04:24;;;;;;;6.13;1.35;;;;;;;;;;4966008;28;93138;-82
2023/10/22 12:06:50;;;;;;;5.72;1.63;;;;;;;;;;4962923;28;94958;-82
2023/10/22 12:09:17;;;;;;;8.00;1.65;;;;;;;;;;4966306;28;93076;-82
2023/10/22 12:11:43;;;;;;;5.40;1.38;;;;;;;;;;4969519;28;93183;-82
2023/10/22 12:14:10;;;;;;;6.20;1.35;;;;;;;;;;4970760;28;93261;-82
2023/10/22 12:16:37;;;;;;;5.47;1.30;;;;;;;;;;4971539;28;93500;-82
2023/10/22 12:19:04;;;;;;;;;;;;;;;;;;4975627;28;92930;-82
2023/10/22 12:21:30;;;;;;;5.32;1.20;;;;;;;;;;4988261;28;117896;-82
2023/10/22 12:23:57;;;;;;;4.93;1.40;;;;;;;;;;4975894;28;93394;-82
2023/10/22 12:26:24;;;;;;;3.65;1.30;;;;;;;;;;4972778;28;92596;-82
2023/10/22 12:28:51;;;;;;;6.45;1.40;;;;;;;;;;4973348;28;93039;-82
2023/10/22 12:31:17;;;;;;;4.43;1.40;;;;;;;;;;4972229;28;95021;-82
2023/10/22 12:33:44;;;;;;;6.03;1.40;;;;;;;;;;4973168;28;95118;-82
2023/10/22 12:36:10;;;;;;;4.30;1.13;;;;;;;;;;4972062;28;93098;-82
2023/10/22 12:38:37;;;;;;;5.45;1.17;;;;;;;;;;4971759;28;92486;-82
2023/10/22 12:41:03;;;;;;;4.60;1.30;;;;;;;;;;4972546;28;93298;-83
2023/10/22 12:43:30;;;;;;;4.05;1.30;;;;;;;;;;4973972;28;93454;-82
2023/10/22 12:45:56;;;;;;;2.95;1.20;;;;;;;;;;4977185;28;93056;-82
2023/10/22 12:48:23;;;;;;;4.93;1.30;;;;;;;;;;4977598;28;92459;-82
2023/10/22 12:50:50;;;;;;;4.80;1.30;;;;;;;;;;4979973;28;92467;-82
2023/10/22 12:53:16;;;;;;;4.53;1.20;;;;;;;;;;4974925;28;92751;-82
2023/10/22 12:55:51;;;;;;;3.95;1.30;;;;;;;;;;4971721;28;95335;-82
2023/10/22 12:58:17;;;;;;;3.83;1.23;;;;;;;;;;4962632;28;99548;-81
2023/10/22 13:00:44;;;;;;;4.35;1.08;;;;;;;;;;4972696;28;92779;-81
2023/10/22 13:03:12;;;;;;;5.30;1.30;;;;;;;;;;4973161;28;92340;-81
2023/10/22 13:05:39;;;;;;;2.38;0.93;;;;;;;;;;4973673;28;92527;-82
2023/10/22 13:08:07;;;;;;;;;;;;;;;;;;4975516;28;93428;-82
2023/10/22 13:10:34;;;;;;;3.70;1.00;;;;;;;;;;4970389;28;92926;-82
2023/10/22 13:13:00;;;;;;;3.60;1.00;;;;;;;;;;4974451;28;92691;-82
2023/10/22 13:15:36;;;;;;;2.78;1.10;;;;;;;;;;4973572;28;92406;-83
2023/10/22 13:18:03;;;;;;;3.50;1.00;;;;;;;;;;4972630;28;92617;-81
2023/10/22 13:20:30;;;;;;;3.53;0.90;;;;;;;;;;4976163;28;95297;-82
2023/10/22 13:22:57;;;;;;;3.17;1.00;;;;;;;;;;4969985;28;93570;-82
2023/10/22 13:25:23;;;;;;;4.25;1.10;;;;;;;;;;4969819;28;92959;-82
2023/10/22 13:27:50;;;;;;;3.30;1.00;;;;;;;;;;4970221;28;93157;-81
2023/10/22 13:30:16;;;;;;;2.38;0.90;;;;;;;;;;4959173;28;92918;-80
2023/10/22 13:32:45;;;;;;;1.95;0.80;;;;;;;;;;4969874;28;94101;-81
2023/10/22 13:35:12;;;;;;;2.42;0.90;;;;;;;;;;4969013;28;100240;-80
2023/10/22 13:37:39;;;;;;;2.53;0.90;;;;;;;;;;4969305;28;91890;-81
2023/10/22 13:40:05;;;;;;;2.50;0.80;;;;;;;;;;4969174;28;92670;-80
2023/10/22 13:42:32;;;;;;;2.53;0.90;;;;;;;;;;4972013;28;93115;-81
2023/10/22 13:44:58;;;;;;;3.22;0.90;;;;;;;;;;4972558;28;95522;-81
2023/10/22 13:47:25;;;;;;;1.65;0.80;;;;;;;;;;4978100;28;95522;-82
2023/10/22 13:49:52;;;;;;;3.03;0.90;;;;;;;;;;4977514;28;93459;-82
2023/10/22 13:52:18;;;;;;;2.72;1.00;;;;;;;;;;4979242;28;92483;-83
2023/10/22 13:54:45;;;;;;;3.78;1.10;;;;;;;;;;4969257;28;95785;-81
2023/10/22 13:57:11;;;;;;;5.07;1.08;;;;;;;;;;4984642;28;93002;-81
2023/10/22 13:59:38;;;;;;;5.53;1.33;;;;;;;;;;4968718;28;93030;-81
2023/10/22 14:02:04;;;;;;;6.50;1.15;;;;;;;;;;4969295;28;94822;-81
2023/10/22 14:04:31;;;;;;;3.63;1.20;;;;;;;;;;4969449;28;92485;-81
2023/10/22 14:06:58;;;;;;;5.57;1.20;;;;;;;;;;4967151;28;92842;-81
2023/10/22 14:09:24;;;;;;;5.28;1.30;;;;;;;;;;4962469;28;95716;-81
2023/10/22 14:11:52;;;;;;;5.50;1.10;;;;;;;;;;4972104;28;92543;-81
2023/10/22 14:14:19;;;;;;;6.88;1.40;;;;;;;;;;4968385;28;93611;-81
2023/10/22 14:16:45;;;;;;;4.50;1.10;;;;;;;;;;4969197;28;92846;-81
2023/10/22 14:19:12;;;;;;;4.28;1.20;;;;;;;;;;4968384;28;92822;-81
2023/10/22 14:21:40;;;;;;;3.63;1.00;;;;;;;;;;4968929;28;92501;-81
2023/10/22 14:24:07;;;;;;;4.13;1.15;;;;;;;;;;4967786;28;92939;-81
2023/10/22 14:26:34;;;;;;;4.53;1.23;;;;;;;;;;4969708;28;92813;-81
2023/10/22 14:29:00;;;;;;;4.82;1.20;;;;;;;;;;4964608;28;93226;-81
2023/10/22 14:31:27;;;;;;;5.55;1.35;;;;;;;;;;4964703;28;92917;-81
2023/10/22 14:33:53;;;;;;;4.03;1.10;;;;;;;;;;4970068;28;94881;-81
2023/10/22 14:36:20;;;;;;;3.10;1.10;;;;;;;;;;4968422;28;92385;-81
2023/10/22 14:38:47;;;;;;;4.00;1.25;;;;;;;;;;4969611;28;93342;-81
2023/10/22 14:41:13;;;;;;;3.90;1.10;;;;;;;;;;4969556;28;93932;-81
2023/10/22 14:43:40;;;;;;;3.10;0.90;;;;;;;;;;4969541;28;92462;-81
2023/10/22 14:46:06;;;;;;;3.83;1.23;;;;;;;;;;4968407;28;92757;-81
2023/10/22 14:48:33;;;;;;;3.47;1.10;;;;;;;;;;4971247;28;92892;-81